sensor_id;sensor_type;location;lat;lon;timestamp;pressure;altitude;pressure_sealevel;temperature;humidity
16255;BME280;8235;52.198;9.904;2024-01-06T00:00:48;99458.19;;;6.66;85.03
16255;BME280;8235;52.198;9.904;2024-01-06T00:03:16;99453.72;;;6.67;84.46
16255;BME280;8235;52.198;9.904;2024-01-06T00:05:43;99456.59;;;6.63;84.47
16255;BME280;8235;52.198;9.904;2024-01-06T00:08:09;99453.09;;;6.63;84.85
16255;BME280;8235;52.198;9.904;2024-01-06T00:10:35;99469.72;;;6.65;84.92
16255;BME280;8235;52.198;9.904;2024-01-06T00:13:02;99469.72;;;6.65;85.29
16255;BME280;8235;52.198;9.904;2024-01-06T00:15:29;99471.59;;;6.63;86.20
16255;BME280;8235;52.198;9.904;2024-01-06T00:17:55;99471.59;;;6.63;85.46
16255;BME280;8235;52.198;9.904;2024-01-06T00:20:23;99473.53;;;6.61;86.62
16255;BME280;8235;52.198;9.904;2024-01-06T00:22:49;99470.88;;;6.61;86.94
16255;BME280;8235;52.198;9.904;2024-01-06T00:25:16;99477.13;;;6.60;86.85
16255;BME280;8235;52.198;9.904;2024-01-06T00:27:42;99475.31;;;6.60;86.42
16255;BME280;8235;52.198;9.904;2024-01-06T00:30:09;99483.34;;;6.59;86.77
16255;BME280;8235;52.198;9.904;2024-01-06T00:32:36;99479.00;;;6.58;87.57
16255;BME280;8235;52.198;9.904;2024-01-06T00:35:03;99472.03;;;6.57;87.14
16255;BME280;8235;52.198;9.904;2024-01-06T00:37:31;99475.53;;;6.57;87.97
16255;BME280;8235;52.198;9.904;2024-01-06T00:39:57;99475.63;;;6.56;87.67
16255;BME280;8235;52.198;9.904;2024-01-06T00:42:24;99487.91;;;6.57;87.26
16255;BME280;8235;52.198;9.904;2024-01-06T00:44:50;99482.84;;;6.67;89.00
16255;BME280;8235;52.198;9.904;2024-01-06T00:47:17;99484.53;;;6.68;89.14
16255;BME280;8235;52.198;9.904;2024-01-06T00:49:43;99490.78;;;6.67;89.62
16255;BME280;8235;52.198;9.904;2024-01-06T00:52:10;99499.03;;;6.62;90.37
16255;BME280;8235;52.198;9.904;2024-01-06T00:54:38;99496.78;;;6.56;92.05
16255;BME280;8235;52.198;9.904;2024-01-06T00:57:04;99490.66;;;6.55;92.49
16255;BME280;8235;52.198;9.904;2024-01-06T00:59:31;99498.03;;;6.50;92.94
16255;BME280;8235;52.198;9.904;2024-01-06T01:01:57;99494.81;;;6.45;93.97
16255;BME280;8235;52.198;9.904;2024-01-06T01:04:24;99501.28;;;6.41;94.12
16255;BME280;8235;52.198;9.904;2024-01-06T01:06:50;99499.56;;;6.40;95.29
16255;BME280;8235;52.198;9.904;2024-01-06T01:09:17;99501.47;;;6.38;95.89
16255;BME280;8235;52.198;9.904;2024-01-06T01:11:45;99507.88;;;6.34;95.82
16255;BME280;8235;52.198;9.904;2024-01-06T01:14:11;99511.47;;;6.33;96.49
16255;BME280;8235;52.198;9.904;2024-01-06T01:16:38;99512.53;;;6.31;96.63
16255;BME280;8235;52.198;9.904;2024-01-06T01:19:04;99529.56;;;6.26;97.09
16255;BME280;8235;52.198;9.904;2024-01-06T01:21:31;99528.78;;;6.24;97.41
16255;BME280;8235;52.198;9.904;2024-01-06T01:23:57;99534.28;;;6.21;97.24
16255;BME280;8235;52.198;9.904;2024-01-06T01:26:24;99526.44;;;6.20;97.72
16255;BME280;8235;52.198;9.904;2024-01-06T01:28:52;99533.53;;;6.19;98.24
16255;BME280;8235;52.198;9.904;2024-01-06T01:31:18;99540.69;;;6.17;98.62
16255;BME280;8235;52.198;9.904;2024-01-06T01:33:44;99534.75;;;6.14;98.59
16255;BME280;8235;52.198;9.904;2024-01-06T01:36:12;99546.16;;;6.14;99.32
16255;BME280;8235;52.198;9.904;2024-01-06T01:38:38;99543.53;;;6.14;99.22
16255;BME280;8235;52.198;9.904;2024-01-06T01:41:05;99542.66;;;6.14;99.45
16255;BME280;8235;52.198;9.904;2024-01-06T01:43:31;99541.72;;;6.15;100.00
16255;BME280;8235;52.198;9.904;2024-01-06T01:45:59;99541.72;;;6.15;99.89
16255;BME280;8235;52.198;9.904;2024-01-06T01:48:27;99542.66;;;6.14;99.87
16255;BME280;8235;52.198;9.904;2024-01-06T01:50:53;99537.38;;;6.14;100.00
16255;BME280;8235;52.198;9.904;2024-01-06T01:53:20;99544.38;;;6.15;100.00
16255;BME280;8235;52.198;9.904;2024-01-06T01:55:49;99539.19;;;6.13;100.00
16255;BME280;8235;52.198;9.904;2024-01-06T01:58:16;99541.06;;;6.11;100.00
16255;BME280;8235;52.198;9.904;2024-01-06T02:00:42;99545.59;;;6.09;100.00
16255;BME280;8235;52.198;9.904;2024-01-06T02:03:11;99557.88;;;6.10;100.00
16255;BME280;8235;52.198;9.904;2024-01-06T02:05:39;99551.72;;;6.10;100.00
16255;BME280;8235;52.198;9.904;2024-01-06T02:08:05;99557.16;;;6.08;100.00
16255;BME280;8235;52.198;9.904;2024-01-06T02:10:32;99559.78;;;6.08;100.00
16255;BME280;8235;52.198;9.904;2024-01-06T02:13:07;99549.22;;;6.08;100.00
16255;BME280;8235;52.198;9.904;2024-01-06T02:15:33;99560.72;;;6.07;100.00
16255;BME280;8235;52.198;9.904;2024-01-06T02:18:00;99565.16;;;6.07;100.00
16255;BME280;8235;52.198;9.904;2024-01-06T02:20:29;99562.53;;;6.07;99.61
16255;BME280;8235;52.198;9.904;2024-01-06T02:22:57;99568.66;;;6.07;99.40
16255;BME280;8235;52.198;9.904;2024-01-06T02:25:26;99572.88;;;6.10;99.00
16255;BME280;8235;52.198;9.904;2024-01-06T02:27:52;99571.09;;;6.10;98.40
16255;BME280;8235;52.198;9.904;2024-01-06T02:30:19;99574.41;;;6.14;97.68
16255;BME280;8235;52.198;9.904;2024-01-06T02:32:45;99575.44;;;6.11;96.92
16255;BME280;8235;52.198;9.904;2024-01-06T02:35:12;99571.84;;;6.12;96.95
16255;BME280;8235;52.198;9.904;2024-01-06T02:37:38;99580.81;;;6.10;96.90
16255;BME280;8235;52.198;9.904;2024-01-06T02:40:07;99578.16;;;6.10;97.16
16255;BME280;8235;52.198;9.904;2024-01-06T02:42:34;99587.59;;;6.14;95.64
16255;BME280;8235;52.198;9.904;2024-01-06T02:45:00;99583.28;;;6.13;96.12
16255;BME280;8235;52.198;9.904;2024-01-06T02:47:27;99585.91;;;6.13;96.64
16255;BME280;8235;52.198;9.904;2024-01-06T02:49:53;99589.50;;;6.12;96.00
16255;BME280;8235;52.198;9.904;2024-01-06T02:52:20;99596.56;;;6.11;95.50
16255;BME280;8235;52.198;9.904;2024-01-06T02:54:47;99592.16;;;6.12;96.25
16255;BME280;8235;52.198;9.904;2024-01-06T02:57:15;99602.72;;;6.12;96.97
16255;BME280;8235;52.198;9.904;2024-01-06T02:59:42;99595.72;;;6.11;96.35
16255;BME280;8235;52.198;9.904;2024-01-06T03:02:08;99594.69;;;6.13;96.41
16255;BME280;8235;52.198;9.904;2024-01-06T03:04:35;99600.16;;;6.10;97.02
16255;BME280;8235;52.198;9.904;2024-01-06T03:07:01;99601.97;;;6.10;97.07
16255;BME280;8235;52.198;9.904;2024-01-06T03:09:27;99593.00;;;6.12;97.32
16255;BME280;8235;52.198;9.904;2024-01-06T03:11:54;99601.00;;;6.11;96.58
16255;BME280;8235;52.198;9.904;2024-01-06T03:14:22;99604.59;;;6.10;97.29
16255;BME280;8235;52.198;9.904;2024-01-06T03:16:49;99610.75;;;6.10;97.01
16255;BME280;8235;52.198;9.904;2024-01-06T03:19:15;99609.88;;;6.10;97.25
16255;BME280;8235;52.198;9.904;2024-01-06T03:21:42;99611.69;;;6.09;97.08
16255;BME280;8235;52.198;9.904;2024-01-06T03:24:08;99615.28;;;6.08;97.56
16255;BME280;8235;52.198;9.904;2024-01-06T03:26:35;99617.19;;;6.06;97.20
16255;BME280;8235;52.198;9.904;2024-01-06T03:29:01;99618.13;;;6.05;97.96
16255;BME280;8235;52.198;9.904;2024-01-06T03:31:30;99615.47;;;6.05;97.76
16255;BME280;8235;52.198;9.904;2024-01-06T03:33:56;99619.06;;;6.04;98.24
16255;BME280;8235;52.198;9.904;2024-01-06T03:36:23;99617.38;;;6.03;98.11
16255;BME280;8235;52.198;9.904;2024-01-06T03:38:50;99620.00;;;6.03;98.96
16255;BME280;8235;52.198;9.904;2024-01-06T03:41:17;99618.31;;;6.02;99.07
16255;BME280;8235;52.198;9.904;2024-01-06T03:43:43;99619.16;;;6.03;99.54
16255;BME280;8235;52.198;9.904;2024-01-06T03:46:10;99628.03;;;6.02;99.71
16255;BME280;8235;52.198;9.904;2024-01-06T03:48:37;99620.94;;;6.02;99.93
16255;BME280;8235;52.198;9.904;2024-01-06T03:51:04;99627.16;;;6.01;99.93
16255;BME280;8235;52.198;9.904;2024-01-06T03:53:30;99621.03;;;6.01;100.00
16255;BME280;8235;52.198;9.904;2024-01-06T03:55:57;99631.59;;;6.01;99.99
16255;BME280;8235;52.198;9.904;2024-01-06T03:58:23;99630.84;;;5.99;100.00
16255;BME280;8235;52.198;9.904;2024-01-06T04:00:50;99640.66;;;5.97;100.00
16255;BME280;8235;52.198;9.904;2024-01-06T04:03:16;99643.38;;;5.95;100.00
16255;BME280;8235;52.198;9.904;2024-01-06T04:05:44;99647.19;;;5.91;100.00
16255;BME280;8235;52.198;9.904;2024-01-06T04:08:11;99646.47;;;5.87;100.00
16255;BME280;8235;52.198;9.904;2024-01-06T04:10:37;99651.94;;;5.84;100.00
16255;BME280;8235;52.198;9.904;2024-01-06T04:13:05;99652.03;;;5.83;100.00
16255;BME280;8235;52.198;9.904;2024-01-06T04:15:31;99661.00;;;5.80;100.00
16255;BME280;8235;52.198;9.904;2024-01-06T04:18:01;99661.16;;;5.77;100.00
16255;BME280;8235;52.198;9.904;2024-01-06T04:20:28;99662.19;;;5.75;100.00
16255;BME280;8235;52.198;9.904;2024-01-06T04:22:56;99658.81;;;5.73;100.00
16255;BME280;8235;52.198;9.904;2024-01-06T04:25:22;99664.19;;;5.71;100.00
16255;BME280;8235;52.198;9.904;2024-01-06T04:27:49;99672.19;;;5.70;100.00
16255;BME280;8235;52.198;9.904;2024-01-06T04:30:16;99678.44;;;5.69;100.00
16255;BME280;8235;52.198;9.904;2024-01-06T04:32:43;99676.72;;;5.68;100.00
16255;BME280;8235;52.198;9.904;2024-01-06T04:35:10;99680.31;;;5.67;100.00
16255;BME280;8235;52.198;9.904;2024-01-06T04:37:36;99684.81;;;5.65;100.00
16255;BME280;8235;52.198;9.904;2024-01-06T04:40:05;99691.13;;;5.62;100.00
16255;BME280;8235;52.198;9.904;2024-01-06T04:42:33;99687.63;;;5.62;100.00
16255;BME280;8235;52.198;9.904;2024-01-06T04:44:59;99692.16;;;5.59;100.00
16255;BME280;8235;52.198;9.904;2024-01-06T04:47:26;99701.09;;;5.57;100.00
16255;BME280;8235;52.198;9.904;2024-01-06T04:49:53;99693.25;;;5.55;100.00
16255;BME280;8235;52.198;9.904;2024-01-06T04:52:19;99700.44;;;5.53;100.00
16255;BME280;8235;52.198;9.904;2024-01-06T04:54:46;99697.03;;;5.51;100.00
16255;BME280;8235;52.198;9.904;2024-01-06T04:57:13;99700.78;;;5.47;100.00
16255;BME280;8235;52.198;9.904;2024-01-06T04:59:41;99695.69;;;5.44;100.00
16255;BME280;8235;52.198;9.904;2024-01-06T05:02:07;99692.38;;;5.41;100.00
16255;BME280;8235;52.198;9.904;2024-01-06T05:04:34;99699.44;;;5.40;100.00
16255;BME280;8235;52.198;9.904;2024-01-06T05:07:00;99700.44;;;5.38;100.00
16255;BME280;8235;52.198;9.904;2024-01-06T05:09:27;99705.00;;;5.36;100.00
16255;BME280;8235;52.198;9.904;2024-01-06T05:11:54;99705.94;;;5.35;100.00
16255;BME280;8235;52.198;9.904;2024-01-06T05:14:21;99713.94;;;5.33;100.00
16255;BME280;8235;52.198;9.904;2024-01-06T05:16:48;99720.94;;;5.34;100.00
16255;BME280;8235;52.198;9.904;2024-01-06T05:19:15;99720.94;;;5.34;100.00
16255;BME280;8235;52.198;9.904;2024-01-06T05:21:45;99722.63;;;5.35;100.00
16255;BME280;8235;52.198;9.904;2024-01-06T05:24:11;99718.38;;;5.33;100.00
16255;BME280;8235;52.198;9.904;2024-01-06T05:26:38;99714.88;;;5.32;100.00
16255;BME280;8235;52.198;9.904;2024-01-06T05:29:05;99716.59;;;5.33;100.00
16255;BME280;8235;52.198;9.904;2024-01-06T05:31:33;99721.94;;;5.32;100.00
16255;BME280;8235;52.198;9.904;2024-01-06T05:33:59;99719.22;;;5.33;100.00
16255;BME280;8235;52.198;9.904;2024-01-06T05:36:26;99720.16;;;5.32;100.00
16255;BME280;8235;52.198;9.904;2024-01-06T05:38:52;99722.97;;;5.29;100.00
16255;BME280;8235;52.198;9.904;2024-01-06T05:41:19;99725.69;;;5.28;100.00
16255;BME280;8235;52.198;9.904;2024-01-06T05:43:45;99728.56;;;5.23;100.00
16255;BME280;8235;52.198;9.904;2024-01-06T05:46:20;99725.28;;;5.19;100.00
16255;BME280;8235;52.198;9.904;2024-01-06T05:48:48;99728.09;;;5.16;100.00
16255;BME280;8235;52.198;9.904;2024-01-06T05:51:14;99735.25;;;5.14;100.00
16255;BME280;8235;52.198;9.904;2024-01-06T05:53:41;99737.09;;;5.12;100.00
16255;BME280;8235;52.198;9.904;2024-01-06T05:56:08;99736.34;;;5.10;100.00
16255;BME280;8235;52.198;9.904;2024-01-06T05:58:34;99745.28;;;5.08;100.00
16255;BME280;8235;52.198;9.904;2024-01-06T06:01:01;99746.03;;;5.10;100.00
16255;BME280;8235;52.198;9.904;2024-01-06T06:03:28;99748.59;;;5.11;100.00
16255;BME280;8235;52.198;9.904;2024-01-06T06:05:55;99758.31;;;5.11;100.00
16255;BME280;8235;52.198;9.904;2024-01-06T06:08:22;99760.88;;;5.12;100.00
16255;BME280;8235;52.198;9.904;2024-01-06T06:10:48;99775.06;;;5.10;100.00
16255;BME280;8235;52.198;9.904;2024-01-06T06:13:26;99774.31;;;5.08;100.00
16255;BME280;8235;52.198;9.904;2024-01-06T06:15:53;99783.22;;;5.05;100.00
16255;BME280;8235;52.198;9.904;2024-01-06T06:18:20;99790.47;;;5.02;100.00
16255;BME280;8235;52.198;9.904;2024-01-06T06:20:46;99795.00;;;5.00;100.00
16255;BME280;8235;52.198;9.904;2024-01-06T06:23:14;99789.88;;;4.97;100.00
16255;BME280;8235;52.198;9.904;2024-01-06T06:25:41;99790.97;;;4.93;100.00
16255;BME280;8235;52.198;9.904;2024-01-06T06:28:07;99799.97;;;4.88;100.00
16255;BME280;8235;52.198;9.904;2024-01-06T06:30:34;99804.47;;;4.86;100.00
16255;BME280;8235;52.198;9.904;2024-01-06T06:33:00;99807.19;;;4.85;100.00
16255;BME280;8235;52.198;9.904;2024-01-06T06:35:27;99824.81;;;4.84;100.00
16255;BME280;8235;52.198;9.904;2024-01-06T06:37:53;99822.19;;;4.84;100.00
16255;BME280;8235;52.198;9.904;2024-01-06T06:40:21;99816.03;;;4.84;100.00
16255;BME280;8235;52.198;9.904;2024-01-06T06:42:48;99821.44;;;4.82;100.00
16255;BME280;8235;52.198;9.904;2024-01-06T06:45:14;99825.78;;;4.83;100.00
16255;BME280;8235;52.198;9.904;2024-01-06T06:47:41;99833.69;;;4.83;100.00
16255;BME280;8235;52.198;9.904;2024-01-06T06:50:08;99834.69;;;4.81;100.00
16255;BME280;8235;52.198;9.904;2024-01-06T06:52:35;99833.94;;;4.79;100.00
16255;BME280;8235;52.198;9.904;2024-01-06T06:55:01;99836.63;;;4.77;100.00
16255;BME280;8235;52.198;9.904;2024-01-06T06:57:29;99845.47;;;4.76;100.00
16255;BME280;8235;52.198;9.904;2024-01-06T06:59:56;99843.94;;;4.72;100.00
16255;BME280;8235;52.198;9.904;2024-01-06T07:02:22;99846.66;;;4.71;100.00
16255;BME280;8235;52.198;9.904;2024-01-06T07:04:49;99851.16;;;4.69;100.00
16255;BME280;8235;52.198;9.904;2024-01-06T07:07:16;99854.78;;;4.66;100.00
16255;BME280;8235;52.198;9.904;2024-01-06T07:09:42;99852.34;;;4.63;100.00
16255;BME280;8235;52.198;9.904;2024-01-06T07:12:09;99859.47;;;4.61;100.00
16255;BME280;8235;52.198;9.904;2024-01-06T07:14:37;99869.31;;;4.58;100.00
16255;BME280;8235;52.198;9.904;2024-01-06T07:17:03;99865.97;;;4.54;100.00
16255;BME280;8235;52.198;9.904;2024-01-06T07:19:31;99872.19;;;4.53;100.00
16255;BME280;8235;52.198;9.904;2024-01-06T07:21:58;99872.25;;;4.51;100.00
16255;BME280;8235;52.198;9.904;2024-01-06T07:24:24;99869.69;;;4.50;100.00
16255;BME280;8235;52.198;9.904;2024-01-06T07:26:52;99883.06;;;4.47;100.00
16255;BME280;8235;52.198;9.904;2024-01-06T07:29:18;99879.72;;;4.43;100.00
16255;BME280;8235;52.198;9.904;2024-01-06T07:31:46;99894.69;;;4.43;100.00
16255;BME280;8235;52.198;9.904;2024-01-06T07:34:13;99900.81;;;4.43;100.00
16255;BME280;8235;52.198;9.904;2024-01-06T07:36:41;99900.09;;;4.40;100.00
16255;BME280;8235;52.198;9.904;2024-01-06T07:39:07;99909.00;;;4.37;100.00
16255;BME280;8235;52.198;9.904;2024-01-06T07:41:34;99914.28;;;4.37;100.00
16255;BME280;8235;52.198;9.904;2024-01-06T07:44:01;99917.84;;;4.36;100.00
16255;BME280;8235;52.198;9.904;2024-01-06T07:46:27;99918.78;;;4.35;100.00
16255;BME280;8235;52.198;9.904;2024-01-06T07:48:56;99917.94;;;4.35;100.00
16255;BME280;8235;52.198;9.904;2024-01-06T07:51:22;99926.75;;;4.34;100.00
16255;BME280;8235;52.198;9.904;2024-01-06T07:53:50;99931.19;;;4.33;100.00
16255;BME280;8235;52.198;9.904;2024-01-06T07:56:16;99928.63;;;4.32;100.00
16255;BME280;8235;52.198;9.904;2024-01-06T07:58:43;99929.53;;;4.31;100.00
16255;BME280;8235;52.198;9.904;2024-01-06T08:01:09;99945.34;;;4.31;100.00
16255;BME280;8235;52.198;9.904;2024-01-06T08:03:36;99945.53;;;4.28;100.00
16255;BME280;8235;52.198;9.904;2024-01-06T08:06:04;99946.47;;;4.27;100.00
16255;BME280;8235;52.198;9.904;2024-01-06T08:08:31;99950.94;;;4.25;100.00
16255;BME280;8235;52.198;9.904;2024-01-06T08:10:57;99950.94;;;4.25;100.00
16255;BME280;8235;52.198;9.904;2024-01-06T08:13:24;99957.94;;;4.26;100.00
16255;BME280;8235;52.198;9.904;2024-01-06T08:15:50;99964.13;;;4.25;100.00
16255;BME280;8235;52.198;9.904;2024-01-06T08:18:17;99970.19;;;4.27;100.00
16255;BME280;8235;52.198;9.904;2024-01-06T08:20:44;99977.31;;;4.25;100.00
16255;BME280;8235;52.198;9.904;2024-01-06T08:23:12;99988.78;;;4.24;100.00
16255;BME280;8235;52.198;9.904;2024-01-06T08:25:39;99997.69;;;4.21;100.00
16255;BME280;8235;52.198;9.904;2024-01-06T08:28:05;99988.91;;;4.21;100.00
16255;BME280;8235;52.198;9.904;2024-01-06T08:30:32;99989.78;;;4.21;100.00
16255;BME280;8235;52.198;9.904;2024-01-06T08:32:58;99994.97;;;4.23;100.00
16255;BME280;8235;52.198;9.904;2024-01-06T08:35:25;99998.66;;;4.18;100.00
16255;BME280;8235;52.198;9.904;2024-01-06T08:37:51;100005.06;;;4.13;100.00
16255;BME280;8235;52.198;9.904;2024-01-06T08:40:19;100008.75;;;4.10;100.00
16255;BME280;8235;52.198;9.904;2024-01-06T08:42:46;100014.94;;;4.09;100.00
16255;BME280;8235;52.198;9.904;2024-01-06T08:45:12;100018.50;;;4.08;100.00
16255;BME280;8235;52.198;9.904;2024-01-06T08:47:39;100022.06;;;4.07;100.00
16255;BME280;8235;52.198;9.904;2024-01-06T08:50:07;100028.25;;;4.06;100.00
16255;BME280;8235;52.198;9.904;2024-01-06T08:52:33;100028.25;;;4.06;100.00
16255;BME280;8235;52.198;9.904;2024-01-06T08:55:00;100033.59;;;4.05;100.00
16255;BME280;8235;52.198;9.904;2024-01-06T08:57:28;100034.38;;;4.07;100.00
16255;BME280;8235;52.198;9.904;2024-01-06T08:59:54;100040.56;;;4.06;100.00
16255;BME280;8235;52.198;9.904;2024-01-06T09:02:21;100042.28;;;4.07;100.00
16255;BME280;8235;52.198;9.904;2024-01-06T09:04:47;100045.84;;;4.06;100.00
16255;BME280;8235;52.198;9.904;2024-01-06T09:07:14;100052.88;;;4.05;100.00
16255;BME280;8235;52.198;9.904;2024-01-06T09:09:42;100055.44;;;4.07;100.00
16255;BME280;8235;52.198;9.904;2024-01-06T09:12:08;100061.59;;;4.07;100.00
16255;BME280;8235;52.198;9.904;2024-01-06T09:14:36;100062.63;;;4.03;100.00
16255;BME280;8235;52.198;9.904;2024-01-06T09:17:03;100061.72;;;4.04;100.00
16255;BME280;8235;52.198;9.904;2024-01-06T09:19:30;100064.28;;;4.06;100.00
16255;BME280;8235;52.198;9.904;2024-01-06T09:21:56;100067.06;;;4.03;100.00
16255;BME280;8235;52.198;9.904;2024-01-06T09:24:23;100083.00;;;4.00;100.00
16255;BME280;8235;52.198;9.904;2024-01-06T09:26:49;100088.13;;;4.03;100.00
16255;BME280;8235;52.198;9.904;2024-01-06T09:29:16;100083.06;;;3.98;100.00
16255;BME280;8235;52.198;9.904;2024-01-06T09:31:44;100091.09;;;3.95;100.00
16255;BME280;8235;52.198;9.904;2024-01-06T09:34:11;100088.47;;;3.95;100.00
16255;BME280;8235;52.198;9.904;2024-01-06T09:36:38;100089.31;;;3.96;100.00
16255;BME280;8235;52.198;9.904;2024-01-06T09:39:04;100090.25;;;3.95;100.00
16255;BME280;8235;52.198;9.904;2024-01-06T09:41:31;100103.34;;;3.96;100.00
16255;BME280;8235;52.198;9.904;2024-01-06T09:43:58;100098.88;;;3.98;100.00
16255;BME280;8235;52.198;9.904;2024-01-06T09:46:25;100098.09;;;3.96;100.00
16255;BME280;8235;52.198;9.904;2024-01-06T09:48:54;100094.66;;;3.94;100.00
16255;BME280;8235;52.198;9.904;2024-01-06T09:51:21;100101.72;;;3.94;100.00
16255;BME280;8235;52.198;9.904;2024-01-06T09:53:49;100107.00;;;3.94;100.00
16255;BME280;8235;52.198;9.904;2024-01-06T09:56:18;100100.72;;;3.96;100.00
16255;BME280;8235;52.198;9.904;2024-01-06T09:58:44;100111.25;;;3.96;100.00
16255;BME280;8235;52.198;9.904;2024-01-06T10:01:11;100110.47;;;3.94;100.00
16255;BME280;8235;52.198;9.904;2024-01-06T10:03:39;100112.09;;;3.97;100.00
16255;BME280;8235;52.198;9.904;2024-01-06T10:06:07;100118.25;;;3.97;100.00
16255;BME280;8235;52.198;9.904;2024-01-06T10:08:35;100126.13;;;3.97;100.00
16255;BME280;8235;52.198;9.904;2024-01-06T10:11:01;100124.50;;;3.95;100.00
16255;BME280;8235;52.198;9.904;2024-01-06T10:13:28;100125.34;;;3.95;100.00
16255;BME280;8235;52.198;9.904;2024-01-06T10:15:55;100119.22;;;3.95;100.00
16255;BME280;8235;52.198;9.904;2024-01-06T10:18:21;100124.34;;;3.98;100.00
16255;BME280;8235;52.198;9.904;2024-01-06T10:20:48;100129.69;;;3.96;100.00
16255;BME280;8235;52.198;9.904;2024-01-06T10:23:15;100128.84;;;3.96;100.00
16255;BME280;8235;52.198;9.904;2024-01-06T10:25:42;100126.06;;;3.99;100.00
16255;BME280;8235;52.198;9.904;2024-01-06T10:28:11;100127.97;;;3.95;100.00
16255;BME280;8235;52.198;9.904;2024-01-06T10:30:38;100132.34;;;3.96;100.00
16255;BME280;8235;52.198;9.904;2024-01-06T10:33:08;100132.34;;;3.96;100.00
16255;BME280;8235;52.198;9.904;2024-01-06T10:35:34;100138.47;;;3.97;100.00
16255;BME280;8235;52.198;9.904;2024-01-06T10:38:01;100142.06;;;3.94;100.00
16255;BME280;8235;52.198;9.904;2024-01-06T10:40:30;100136.81;;;3.94;100.00
16255;BME280;8235;52.198;9.904;2024-01-06T10:42:56;100148.31;;;3.93;100.00
16255;BME280;8235;52.198;9.904;2024-01-06T10:45:23;100147.44;;;3.93;100.00
16255;BME280;8235;52.198;9.904;2024-01-06T10:47:50;100151.06;;;3.90;100.00
16255;BME280;8235;52.198;9.904;2024-01-06T10:50:18;100151.06;;;3.90;100.00
16255;BME280;8235;52.198;9.904;2024-01-06T10:52:46;100156.22;;;3.93;100.00
16255;BME280;8235;52.198;9.904;2024-01-06T10:55:15;100157.06;;;3.94;100.00
16255;BME280;8235;52.198;9.904;2024-01-06T10:57:44;100169.38;;;3.93;100.00
16255;BME280;8235;52.198;9.904;2024-01-06T11:00:12;100166.88;;;3.90;100.00
16255;BME280;8235;52.198;9.904;2024-01-06T11:02:39;100165.16;;;3.89;100.00
16255;BME280;8235;52.198;9.904;2024-01-06T11:05:08;100158.25;;;3.87;100.00
16255;BME280;8235;52.198;9.904;2024-01-06T11:07:36;100158.25;;;3.87;100.00
16255;BME280;8235;52.198;9.904;2024-01-06T11:10:07;100156.47;;;3.87;100.00
16255;BME280;8235;52.198;9.904;2024-01-06T11:12:35;100154.75;;;3.86;100.00
16255;BME280;8235;52.198;9.904;2024-01-06T11:15:04;100155.59;;;3.87;100.00
16255;BME280;8235;52.198;9.904;2024-01-06T11:17:50;100153.81;;;3.87;100.00
16255;BME280;8235;52.198;9.904;2024-01-06T11:20:18;100158.25;;;3.87;100.00
16255;BME280;8235;52.198;9.904;2024-01-06T11:22:47;100154.75;;;3.86;100.00
16255;BME280;8235;52.198;9.904;2024-01-06T11:25:15;100161.66;;;3.89;100.00
16255;BME280;8235;52.198;9.904;2024-01-06T11:27:43;100151.97;;;3.89;100.00
16255;BME280;8235;52.198;9.904;2024-01-06T11:30:19;100155.66;;;3.85;100.00
16255;BME280;8235;52.198;9.904;2024-01-06T11:32:46;100155.59;;;3.87;100.00
16255;BME280;8235;52.198;9.904;2024-01-06T11:35:14;100151.31;;;3.84;100.00
16255;BME280;8235;52.198;9.904;2024-01-06T11:37:51;100151.31;;;3.84;100.00
16255;BME280;8235;52.198;9.904;2024-01-06T11:40:32;100153.03;;;3.85;100.00
16255;BME280;8235;52.198;9.904;2024-01-06T11:43:01;100153.09;;;3.83;100.00
16255;BME280;8235;52.198;9.904;2024-01-06T11:45:30;100153.03;;;3.85;100.00
16255;BME280;8235;52.198;9.904;2024-01-06T11:47:58;100158.31;;;3.85;100.00
16255;BME280;8235;52.198;9.904;2024-01-06T11:50:25;100164.50;;;3.84;100.00
16255;BME280;8235;52.198;9.904;2024-01-06T11:52:52;100159.34;;;3.81;100.00
16255;BME280;8235;52.198;9.904;2024-01-06T11:55:19;100166.41;;;3.80;100.00
16255;BME280;8235;52.198;9.904;2024-01-06T11:57:45;100163.81;;;3.79;100.00
16255;BME280;8235;52.198;9.904;2024-01-06T12:00:13;100166.53;;;3.77;100.00
16255;BME280;8235;52.198;9.904;2024-01-06T12:02:42;100169.09;;;3.79;100.00
16255;BME280;8235;52.198;9.904;2024-01-06T12:05:12;100169.25;;;3.76;100.00
16255;BME280;8235;52.198;9.904;2024-01-06T12:07:40;100171.03;;;3.75;100.00
16255;BME280;8235;52.198;9.904;2024-01-06T12:10:07;100167.44;;;3.76;100.00
16255;BME280;8235;52.198;9.904;2024-01-06T12:12:34;100173.84;;;3.71;100.00
16255;BME280;8235;52.198;9.904;2024-01-06T12:15:02;100176.50;;;3.71;100.00
16255;BME280;8235;52.198;9.904;2024-01-06T12:17:30;100173.13;;;3.67;100.00
16255;BME280;8235;52.198;9.904;2024-01-06T12:20:00;100179.38;;;3.65;100.00
16255;BME280;8235;52.198;9.904;2024-01-06T12:22:29;100187.28;;;3.65;100.00
16255;BME280;8235;52.198;9.904;2024-01-06T12:25:02;100185.56;;;3.64;100.00
16255;BME280;8235;52.198;9.904;2024-01-06T12:37:23;100192.22;;;3.52;100.00
16255;BME280;8235;52.198;9.904;2024-01-06T12:40:10;100187.13;;;3.47;100.00
16255;BME280;8235;52.198;9.904;2024-01-06T12:42:36;100190.72;;;3.45;100.00
16255;BME280;8235;52.198;9.904;2024-01-06T12:45:07;100196.06;;;3.43;100.00
16255;BME280;8235;52.198;9.904;2024-01-06T12:47:35;100196.97;;;3.42;100.00
16255;BME280;8235;52.198;9.904;2024-01-06T12:50:01;100197.13;;;3.39;100.00
16255;BME280;8235;52.198;9.904;2024-01-06T12:52:32;100198.09;;;3.37;100.00
16255;BME280;8235;52.198;9.904;2024-01-06T12:54:59;100203.44;;;3.35;100.00
16255;BME280;8235;52.198;9.904;2024-01-06T12:57:26;100210.41;;;3.36;100.00
16255;BME280;8235;52.198;9.904;2024-01-06T12:59:53;100216.59;;;3.35;100.00
16255;BME280;8235;52.198;9.904;2024-01-06T13:02:20;100208.69;;;3.35;100.00
16255;BME280;8235;52.198;9.904;2024-01-06T13:04:46;100212.13;;;3.37;100.00
16255;BME280;8235;52.198;9.904;2024-01-06T13:07:13;100205.28;;;3.33;100.00
16255;BME280;8235;52.198;9.904;2024-01-06T13:09:41;100214.13;;;3.31;100.00
16255;BME280;8235;52.198;9.904;2024-01-06T13:12:07;100212.47;;;3.28;100.00
16255;BME280;8235;52.198;9.904;2024-01-06T13:14:35;100217.88;;;3.25;100.00
16255;BME280;8235;52.198;9.904;2024-01-06T13:17:01;100224.84;;;3.26;100.00
16255;BME280;8235;52.198;9.904;2024-01-06T13:19:31;100229.25;;;3.26;100.00